Burlington, WA

11:24 PM PST on February 13, 2016 (GMT -0800)
Bow | | Change Station
CLOSE
Current Station
Personal Weather Station
Location: Bow, WA
Elevation: 85 ft
Nearby Weather Stations

Elev 85 ft 48.54 °N, 122.37 °W | Updated 1 minute ago

Overcast
Overcast
42.1 °F
Feels Like 39 °F
N
5.4
Wind Variable Wind from North
Gusts 12.0 mph

Today
High -- | Low -- °F
--% Chance of Precip.
Yesterday
High -- | Low -- °F
Precip. -- in
Pressure 30.10 in
Visibility 10.0 miles
Clouds Mostly Cloudy 1300 ft
Overcast 3200 ft
Windchill 39 °F
Dew Point 41 °F
Humidity 96%
Rainfall 0.36 in
Snow Depth Not available.
7:20 AM 5:27 PM
Waxing Crescent, 39% visible
METAR KNUW 140656Z 14012G24KT 10SM BKN013 OVC032 08/07 A3010 RMK AO2 SLP192 T00830067 $
Pressure 30.10 in
Visibility 10.0 miles
Clouds Mostly Cloudy 1300 ft
Overcast 3200 ft
Windchill 39 °F
Dew Point 41 °F
Humidity 96%
Rainfall 0.36 in
Snow Depth Not available.
7:20 AM 5:27 PM
Waxing Crescent, 39% visible
METAR KNUW 140656Z 14012G24KT 10SM BKN013 OVC032 08/07 A3010 RMK AO2 SLP192 T00830067 $

10-Day Weather Forecast

Almanac

Astronomy

Feb. 13, 2016 Rise Set
Actual Time
Civil Twilight
Nautical Twilight
Astronomical Twilight
Moon
Length of Visible Light
Length of Day
Tomorrow will be .
, % of the Moon is Illuminated

Today's Extremes

State Highs State Lows

Community

WunderPhotos

Upload Photos

1,892,757 photos uploaded!

WunderBlog® & News

Nearby

Air Quality

  Air Quality AQ Index Pollutant
Not available.

Snow Depth

Station Depth Elevation

Earthquake Activity

City Distance Mag. Time & Date
Minimum magnitude displayed is 2.5.

Coastal Water Temperatures

Place Temperature

Stations

Nearby Weather Stations

Station Location Temp. Windchill Dew Point Humidity Wind Precip. Elev Updated Type
                   

Watches & Warnings

There are currently no watches in effect.